Omak, WA

1:27 AM PDT on July 25, 2014 (GMT -0700)
Omak (KOMK) Elev 1302 ft | 48.46 °N, 119.52 °W | Change Station

Current weather conditions updated 34 minutes ago

Clear
Clear
53 °F
Feels Like 53 °F
N
6
Wind Variable Wind from NNE

Today is forecast to be Warmer than yesterday.

Today
High -- | Low -- °F
--% Chance of Precip.
Yesterday
High -- | Low -- °F
Precip. -- in
5:24 AM 8:44 PM
Waning Crescent, 2% visible
Pressure 30.06 in
Visibility 10.0 miles
Clouds Clear
Dew Point 38 °F
Humidity 57%
Rainfall 0.00 in
Snow Depth Not available.
UV 0 out of 12
Pollen 5.70 out of 12
Air Quality Not available.
Flu Activity Not available.
METAR KOMK 250753Z AUTO 03005KT 10SM CLR 12/03 A3007 RMK AO2 SLP179 T01170033 402560106

More Conditions Fewer Conditions

Pressure 30.06 in
Visibility 10.0 miles
Clouds Clear
Dew Point 38 °F
Humidity 57%
Rainfall 0.00 in
Snow Depth Not available.
UV 0 out of 12
Pollen 5.70 out of 12
Air Quality Not available.
Flu Activity Not available.
METAR KOMK 250753Z AUTO 03005KT 10SM CLR 12/03 A3007 RMK AO2 SLP179 T01170033 402560106

More Conditions Fewer Conditions

10-Day Weather Forecast

Almanac

Astronomy

Jul. 25, 2014 Rise Set
Actual Time 5:24 AM PDT 8:44 PM PDT
Civil Twilight 4:46 AM PDT 9:22 PM PDT
Nautical Twilight 3:55 AM PDT 10:12 PM PDT
Astronomical Twilight 2:50 AM PDT 11:16 PM PDT
Moon 4:31 AM PDT 7:39 PM PDT
Length of Visible Light 16h 36m
Length of Day
15h 20m
Tomorrow will be 2m 30s shorter.
Waning Crescent, 2% of the Moon is Illuminated
Today
Waning Crescent
Jul 26
New
Aug 3
First Quarter
Aug 10
Full
Aug 17
Last Quarter

Today's Extremes

State Highs State Lows

Community

WunderPhotos

Upload Photos

1,737,273 photos uploaded!

Nearby

Snow Depth

Station Depth Elevation
Moses Mountain 1 in 5300 ft
Rainy Pass 0 in 4780 ft
Harts Pass 0 in 6500 ft
Sentinel Butte 0 in 4920 ft
Lyman Lake 0 in 5900 ft

Earthquake Activity

City Distance Mag. Time & Date
No recent earthquake activity has been reported nearby.
Minimum magnitude displayed is 2.5.

Coastal Water Temperatures

Place Temperature
No Stations Reporting

Nearby Weather Stations

Station Location Temp. Windchill Dew Point Humidity Wind Precip. Elev Updated Type
Harris Rd, Okanogan, WA 50.1 °F - 24 °F 36% NNE  at  1.0 mph - / hr 814 ft 1:25 AM PDT Normal
OKANOGAN / MALOTT, Okanogan, WA 63.5 °F - 35 °F 34% WNW  at  23.9 mph 0.00 in / hr 910 ft 1:27 AM PDT Rapid Fire
Brewster, WA 61.7 °F - 40 °F 45% ENE  at  0.0 mph 0.00 in / hr 1004 ft 1:27 AM PDT Rapid Fire
RAWS LEECHER WA, Carlton, WA 43 °F 41 °F 21 °F 41% NNE  at  4 mph 0.00 in / hr 4991 ft 12:25 AM PDT MADIS

Show More Stations Show Fewer Stations